Time;durP1;ratioP1;P1;durP2;ratioP2;P2;SDS_P1;SDS_P2;PMS_P1;PMS_P2;Temp;Humidity;BMP_temperature;BMP_pressure;BME280_temperature;BME280_humidity;BME280_pressure;Samples;Min_cycle;Max_cycle;Signal;HPM_P1;HPM_P2
2022/08/08 00:00:10;;;;;;;20.23;5.20;;;13.20;99.90;;;;;;5031491;28;20045;-67
2022/08/08 00:02:39;;;;;;;7.97;6.97;;;13.20;99.90;;;;;;5047498;28;20047;-67
2022/08/08 00:05:28;;;;;;;8.95;6.78;;;13.20;99.90;;;;;;5051236;28;20040;-67
2022/08/08 00:08:24;;;;;;;9.75;8.25;;;13.30;99.90;;;;;;5051270;28;20068;-67
2022/08/08 00:11:33;;;;;;;35.30;6.22;;;13.20;99.90;;;;;;5048027;28;20060;-67
2022/08/08 00:14:17;;;;;;;5.78;4.72;;;13.20;99.90;;;;;;5019658;28;20107;-67
2022/08/08 00:16:50;;;;;;;7.15;5.63;;;13.20;99.90;;;;;;5046264;28;20108;-67
2022/08/08 00:19:34;;;;;;;6.30;5.22;;;13.20;99.90;;;;;;5038219;28;20112;-66
2022/08/08 00:22:11;;;;;;;8.30;5.18;;;13.20;99.90;;;;;;5050537;28;20045;-66
2022/08/08 00:24:44;;;;;;;7.75;6.53;;;13.10;99.90;;;;;;5051209;28;20151;-67
2022/08/08 00:27:12;;;;;;;8.85;6.15;;;13.10;99.90;;;;;;5059844;28;20118;-67
2022/08/08 00:29:46;;;;;;;9.07;6.28;;;13.00;99.90;;;;;;5060197;28;20431;-67
2022/08/08 00:32:32;;;;;;;7.70;6.68;;;13.00;99.90;;;;;;5054897;28;20081;-66
2022/08/08 00:35:21;;;;;;;7.30;6.32;;;12.90;99.90;;;;;;5066511;28;20440;-67
2022/08/08 00:38:12;;;;;;;7.00;6.30;;;12.90;99.90;;;;;;5059023;28;20033;-67
2022/08/08 00:40:47;;;;;;;6.75;6.03;;;12.90;99.90;;;;;;5035229;28;20532;-66
2022/08/08 00:43:32;;;;;;;7.55;6.72;;;12.70;99.90;;;;;;5018648;28;20059;-66
2022/08/08 00:46:12;;;;;;;11.35;6.10;;;12.60;99.90;;;;;;5052344;28;20047;-67
2022/08/08 00:49:00;;;;;;;45.80;3.63;;;12.40;99.90;;;;;;5055132;28;20043;-67
2022/08/08 00:51:51;;;;;;;73.82;4.95;;;12.30;99.90;;;;;;5035033;28;20107;-67
2022/08/08 00:54:42;;;;;;;103.15;6.50;;;12.40;99.90;;;;;;5046580;28;20036;-67
2022/08/08 00:57:10;;;;;;;122.03;6.60;;;12.40;99.90;;;;;;5054880;28;20488;-67
2022/08/08 01:00:07;;;;;;;236.45;8.65;;;12.40;99.90;;;;;;5042866;28;20037;-66
2022/08/08 01:03:07;;;;;;;12.20;6.88;;;12.50;99.90;;;;;;5048362;28;20059;-66
2022/08/08 01:05:54;;;;;;;11.05;6.93;;;12.60;99.90;;;;;;5054875;28;20044;-66
2022/08/08 01:08:41;;;;;;;12.63;9.00;;;12.70;99.90;;;;;;5053580;28;20040;-66
2022/08/08 01:11:44;;;;;;;11.07;7.95;;;12.70;99.90;;;;;;5034657;28;20048;-66
2022/08/08 01:14:25;;;;;;;11.73;8.30;;;12.70;99.90;;;;;;5054446;28;20044;-67
2022/08/08 01:17:06;;;;;;;8.77;7.30;;;12.80;99.90;;;;;;5042954;28;20029;-67
2022/08/08 01:20:03;;;;;;;10.95;7.05;;;12.80;99.90;;;;;;5048186;28;20466;-67
2022/08/08 01:22:56;;;;;;;11.10;7.32;;;12.80;99.90;;;;;;5035476;28;20152;-67
2022/08/08 01:25:46;;;;;;;9.57;7.03;;;12.70;99.90;;;;;;5052413;28;20599;-67
2022/08/08 01:28:25;;;;;;;9.00;7.03;;;12.70;99.90;;;;;;5053828;28;20073;-67
2022/08/08 01:31:12;;;;;;;7.05;6.10;;;12.70;99.90;;;;;;5053744;28;20434;-66
2022/08/08 01:34:03;;;;;;;6.28;5.03;;;12.60;99.90;;;;;;5050631;28;20036;-66
2022/08/08 01:37:07;;;;;;;8.13;5.47;;;12.50;99.90;;;;;;5049750;28;20044;-67
2022/08/08 01:40:00;;;;;;;8.20;4.95;;;12.40;99.90;;;;;;5033618;28;20085;-66
2022/08/08 01:42:48;;;;;;;8.68;6.43;;;12.30;99.90;;;;;;5050349;28;20082;-67
2022/08/08 01:45:16;;;;;;;11.48;9.15;;;12.20;99.90;;;;;;5053803;28;20037;-67
2022/08/08 01:47:48;;;;;;;7.82;6.93;;;12.00;99.90;;;;;;5035961;28;20120;-66
2022/08/08 01:50:52;;;;;;;10.68;8.10;;;11.90;99.90;;;;;;5035992;28;20506;-66
2022/08/08 01:53:43;;;;;;;9.98;7.53;;;11.90;99.90;;;;;;5027346;28;20041;-66
2022/08/08 01:56:33;;;;;;;11.35;7.18;;;11.90;99.90;;;;;;5050488;28;20049;-67
2022/08/08 01:59:52;;;;;;;8.35;6.97;;;12.00;99.90;;;;;;5045498;28;20381;-67
2022/08/08 02:02:47;;;;;;;13.23;7.90;;;12.00;99.90;;;;;;5044873;28;20048;-66
2022/08/08 02:05:28;;;;;;;16.63;6.18;;;12.10;99.90;;;;;;5048632;28;20987;-66
2022/08/08 02:08:25;;;;;;;14.48;5.05;;;12.20;99.90;;;;;;5034234;28;20117;-67
2022/08/08 02:11:06;;;;;;;12.00;6.75;;;12.10;99.90;;;;;;5038383;28;20067;-67
2022/08/08 02:13:52;;;;;;;9.55;6.10;;;12.10;99.90;;;;;;5050366;28;20495;-67
2022/08/08 02:16:46;;;;;;;8.40;5.82;;;12.10;99.90;;;;;;5052669;28;20040;-66
2022/08/08 02:19:16;;;;;;;8.10;5.57;;;12.10;99.90;;;;;;5006274;28;20055;-66
2022/08/08 02:22:32;;;;;;;7.80;6.50;;;12.00;99.90;;;;;;5051473;28;20059;-66
2022/08/08 02:24:53;;;;;;;7.07;5.80;;;12.00;99.90;;;;;;5038410;28;20073;-67
2022/08/08 02:27:28;;;;;;;7.63;6.32;;;12.00;99.90;;;;;;5057737;28;20033;-66
2022/08/08 02:30:09;;;;;;;7.53;5.53;;;12.00;99.90;;;;;;5052994;28;20081;-66
2022/08/08 02:32:46;;;;;;;7.35;6.00;;;12.10;99.90;;;;;;5043866;28;20044;-67
2022/08/08 02:35:28;;;;;;;8.27;6.03;;;12.00;99.90;;;;;;5051908;28;20041;-67
2022/08/08 02:38:31;;;;;;;8.48;6.32;;;12.10;99.90;;;;;;5052918;28;20037;-66
2022/08/08 02:41:24;;;;;;;6.95;5.55;;;12.10;99.90;;;;;;5060110;28;20090;-67
2022/08/08 02:44:36;;;;;;;13.05;5.40;;;12.00;99.90;;;;;;5052662;28;20500;-66
2022/08/08 02:47:27;;;;;;;7.57;5.97;;;11.80;99.90;;;;;;4988904;28;20074;-66
2022/08/08 02:50:01;;;;;;;10.98;5.10;;;11.70;99.90;;;;;;5049277;28;20045;-67
2022/08/08 02:52:49;;;;;;;19.95;6.70;;;11.70;99.90;;;;;;5051485;28;20071;-66
2022/08/08 02:55:47;;;;;;;46.88;6.38;;;11.60;99.90;;;;;;5052519;28;20029;-67
2022/08/08 02:58:43;;;;;;;93.43;6.05;;;11.50;99.90;;;;;;5004251;28;20049;-67
2022/08/08 03:01:31;;;;;;;222.07;10.63;;;11.40;99.90;;;;;;5051433;28;20067;-67
2022/08/08 03:04:47;;;;;;;54.38;7.38;;;11.20;99.90;;;;;;5049666;28;20122;-67
2022/08/08 03:07:32;;;;;;;26.38;6.22;;;11.10;99.90;;;;;;4999264;28;20056;-67
2022/08/08 03:10:43;;;;;;;6.72;5.32;;;11.00;99.90;;;;;;5052207;28;20091;-66
2022/08/08 03:13:27;;;;;;;4.90;4.28;;;11.00;99.90;;;;;;5016877;28;20049;-66
2022/08/08 03:16:23;;;;;;;4.05;3.47;;;11.10;99.90;;;;;;5042008;28;20068;-67
2022/08/08 03:18:51;;;;;;;5.72;3.15;;;11.20;99.90;;;;;;5048278;28;20037;-67
2022/08/08 03:21:17;;;;;;;16.77;3.58;;;11.10;99.90;;;;;;5048794;28;20662;-66
2022/08/08 03:23:42;;;;;;;8.18;4.47;;;11.20;99.90;;;;;;5044663;28;20108;-67
2022/08/08 03:26:08;;;;;;;4.78;4.28;;;11.10;99.90;;;;;;5051739;28;20048;-66
2022/08/08 03:28:42;;;;;;;36.10;6.38;;;11.10;99.90;;;;;;5046690;28;20094;-66
2022/08/08 03:33:52;;;;;;;25.98;3.00;;;11.10;99.90;;;;;;5046916;28;20442;-66
2022/08/08 03:36:18;;;;;;;29.58;3.30;;;11.10;99.90;;;;;;5050677;28;20045;-66
2022/08/08 03:38:49;;;;;;;4.40;3.60;;;11.10;99.90;;;;;;5048229;28;20555;-66
2022/08/08 03:41:15;;;;;;;8.43;3.63;;;11.10;99.90;;;;;;5032909;28;20086;-66
2022/08/08 03:43:52;;;;;;;7.57;4.63;;;11.10;99.90;;;;;;5051942;28;20271;-66
2022/08/08 03:46:18;;;;;;;10.90;5.50;;;11.20;99.90;;;;;;5050364;28;20068;-66
2022/08/08 03:49:03;;;;;;;15.27;6.55;;;11.20;99.90;;;;;;5050743;28;20033;-66
2022/08/08 03:51:29;;;;;;;29.30;7.90;;;11.20;99.90;;;;;;5051473;28;20042;-66
2022/08/08 03:53:55;;;;;;;48.90;6.22;;;11.20;99.90;;;;;;5027782;28;20052;-66
2022/08/08 03:56:21;;;;;;;8.95;5.50;;;11.20;99.90;;;;;;5058812;28;20376;-66
2022/08/08 03:58:48;;;;;;;7.78;4.75;;;11.10;99.90;;;;;;5051238;28;20036;-66
2022/08/08 04:01:14;;;;;;;9.82;5.60;;;11.20;99.90;;;;;;5031230;28;20389;-66
2022/08/08 04:03:44;;;;;;;7.43;5.68;;;11.20;99.90;;;;;;5049687;28;20039;-66
2022/08/08 04:06:10;;;;;;;8.32;5.60;;;11.20;99.90;;;;;;5051020;28;20045;-66
2022/08/08 04:08:37;;;;;;;6.43;4.65;;;11.30;99.90;;;;;;5051640;28;20048;-66
2022/08/08 04:11:05;;;;;;;6.40;4.15;;;11.20;99.90;;;;;;5043120;28;20570;-66
2022/08/08 04:13:31;;;;;;;8.88;6.53;;;11.10;99.90;;;;;;5038132;28;20064;-66
2022/08/08 04:15:56;;;;;;;8.07;4.78;;;11.20;99.90;;;;;;5035042;28;20161;-66
2022/08/08 04:18:22;;;;;;;10.07;5.47;;;11.30;99.90;;;;;;5032868;28;20102;-66
2022/08/08 04:20:48;;;;;;;8.68;6.05;;;11.30;99.90;;;;;;5051114;28;20059;-66
2022/08/08 04:23:14;;;;;;;9.73;6.18;;;11.40;99.90;;;;;;5049935;28;20546;-66
2022/08/08 04:25:40;;;;;;;7.40;5.05;;;11.40;99.90;;;;;;5040389;28;20075;-66
2022/08/08 04:28:06;;;;;;;10.77;7.43;;;11.40;99.90;;;;;;5051895;28;20136;-66
2022/08/08 04:30:32;;;;;;;12.68;9.13;;;11.40;99.90;;;;;;5055889;28;20044;-66
2022/08/08 04:32:57;;;;;;;14.13;8.95;;;11.20;99.90;;;;;;5050974;28;20033;-66
2022/08/08 04:35:23;;;;;;;14.05;8.88;;;11.20;99.90;;;;;;5048010;28;20721;-66
2022/08/08 04:37:50;;;;;;;11.93;7.38;;;11.00;99.90;;;;;;5045581;28;20034;-66
2022/08/08 04:40:16;;;;;;;12.38;6.95;;;11.00;99.90;;;;;;5050610;28;20067;-66
2022/08/08 04:42:42;;;;;;;9.52;5.85;;;10.90;99.90;;;;;;5050233;28;20490;-66
2022/08/08 04:45:08;;;;;;;10.00;5.50;;;11.00;99.90;;;;;;5045564;28;20159;-66
2022/08/08 04:47:33;;;;;;;9.05;5.95;;;11.10;99.90;;;;;;5045423;28;20111;-66
2022/08/08 04:49:59;;;;;;;7.30;5.13;;;11.10;99.90;;;;;;5041225;28;20520;-66
2022/08/08 04:52:25;;;;;;;7.07;5.03;;;11.10;99.90;;;;;;5050336;28;20033;-66
2022/08/08 04:54:50;;;;;;;6.13;4.72;;;11.10;99.90;;;;;;5050883;28;20132;-66
2022/08/08 04:57:16;;;;;;;7.75;6.05;;;11.10;99.90;;;;;;5045622;28;20064;-66
2022/08/08 04:59:43;;;;;;;7.15;5.22;;;11.10;99.90;;;;;;5030991;28;20528;-66
2022/08/08 05:02:09;;;;;;;9.55;6.40;;;11.20;99.90;;;;;;5034264;28;20033;-66
2022/08/08 05:04:35;;;;;;;7.22;5.65;;;11.20;99.90;;;;;;5044939;28;20068;-66
2022/08/08 05:07:01;;;;;;;9.73;6.03;;;11.20;99.90;;;;;;5050740;28;20083;-66
2022/08/08 05:09:26;;;;;;;9.13;6.60;;;11.30;99.90;;;;;;5045411;28;20037;-66
2022/08/08 05:11:52;;;;;;;8.25;6.05;;;11.40;99.90;;;;;;5025282;28;20072;-66
2022/08/08 05:14:17;;;;;;;7.20;5.25;;;11.50;99.90;;;;;;5052962;28;20040;-66
2022/08/08 05:16:43;;;;;;;8.95;6.68;;;11.60;99.90;;;;;;5054449;28;20075;-66
2022/08/08 05:19:12;;;;;;;10.57;6.80;;;11.60;99.90;;;;;;5048124;28;20040;-66
2022/08/08 05:21:41;;;;;;;11.00;6.28;;;11.70;99.90;;;;;;5053385;28;20025;-66
2022/08/08 05:24:07;;;;;;;9.32;7.03;;;11.70;99.90;;;;;;5053646;28;20491;-65
2022/08/08 05:26:34;;;;;;;10.73;7.18;;;11.80;99.90;;;;;;5045102;28;20038;-66
2022/08/08 05:29:02;;;;;;;10.27;7.28;;;11.90;99.90;;;;;;5049975;28;20039;-66
2022/08/08 05:31:29;;;;;;;9.75;6.38;;;11.90;99.90;;;;;;5053664;28;20064;-65
2022/08/08 05:33:55;;;;;;;9.45;6.60;;;12.10;99.90;;;;;;5036569;28;20048;-66
2022/08/08 05:36:24;;;;;;;9.95;6.80;;;12.20;99.90;;;;;;5046854;28;20438;-66
2022/08/08 05:38:51;;;;;;;9.98;6.97;;;12.20;99.90;;;;;;5043290;28;20544;-66
2022/08/08 05:41:22;;;;;;;15.95;7.90;;;12.30;99.90;;;;;;5047511;28;20128;-66
2022/08/08 05:43:48;;;;;;;11.68;7.28;;;12.40;99.90;;;;;;5036764;28;20112;-67
2022/08/08 05:46:15;;;;;;;13.45;7.65;;;12.50;99.90;;;;;;5039781;28;20119;-66
2022/08/08 05:48:42;;;;;;;12.05;6.55;;;12.60;99.90;;;;;;5038492;28;20040;-67
2022/08/08 05:51:08;;;;;;;11.70;6.88;;;12.70;99.90;;;;;;5032945;28;20086;-67
2022/08/08 05:53:34;;;;;;;10.68;7.10;;;12.80;99.90;;;;;;5055054;28;20037;-66
2022/08/08 05:56:00;;;;;;;11.32;7.22;;;12.90;99.90;;;;;;5053124;28;20051;-67
2022/08/08 05:58:31;;;;;;;12.23;6.85;;;13.10;99.90;;;;;;5053759;28;20033;-67
2022/08/08 06:00:59;;;;;;;9.95;7.30;;;13.20;99.90;;;;;;5053167;28;20189;-67
2022/08/08 06:03:26;;;;;;;10.27;6.65;;;13.30;99.90;;;;;;5051631;28;20032;-67
2022/08/08 06:05:56;;;;;;;12.70;7.28;;;13.30;99.90;;;;;;5052171;28;20033;-67
2022/08/08 06:08:27;;;;;;;13.20;7.38;;;13.50;99.90;;;;;;5047773;28;20053;-67
2022/08/08 06:10:55;;;;;;;16.02;7.47;;;13.60;99.90;;;;;;5029859;28;20051;-67
2022/08/08 06:13:21;;;;;;;12.65;7.25;;;13.70;99.90;;;;;;5034141;28;20033;-67
2022/08/08 06:15:48;;;;;;;11.45;7.80;;;13.80;99.90;;;;;;5034546;28;20547;-67
2022/08/08 06:18:15;;;;;;;11.88;7.03;;;13.90;99.90;;;;;;5033097;28;20432;-66
2022/08/08 06:20:42;;;;;;;13.82;7.38;;;14.00;99.90;;;;;;5028596;28;20128;-67
2022/08/08 06:23:08;;;;;;;14.30;7.22;;;14.10;99.90;;;;;;5052070;28;20129;-68
2022/08/08 06:25:40;;;;;;;14.15;7.28;;;14.30;99.90;;;;;;5052544;28;20069;-67
2022/08/08 06:28:14;;;;;;;12.30;7.88;;;14.50;99.90;;;;;;5055106;28;20470;-67
2022/08/08 06:30:43;;;;;;;13.55;7.00;;;14.70;99.90;;;;;;5051784;28;20047;-68
2022/08/08 06:33:11;;;;;;;14.10;7.13;;;14.90;99.90;;;;;;5051610;28;20041;-66
2022/08/08 06:35:44;;;;;;;11.13;6.65;;;15.10;99.90;;;;;;5045323;28;20028;-68
2022/08/08 06:38:10;;;;;;;14.27;6.90;;;15.30;99.90;;;;;;5024697;28;20107;-67
2022/08/08 06:40:38;;;;;;;11.52;6.60;;;15.50;99.90;;;;;;5046721;28;20037;-66
2022/08/08 06:43:07;;;;;;;13.30;5.90;;;15.70;99.90;;;;;;5057320;28;20430;-67
2022/08/08 06:45:33;;;;;;;8.98;5.90;;;15.90;99.90;;;;;;5033335;28;20041;-67
2022/08/08 06:47:59;;;;;;;9.88;4.70;;;16.00;99.90;;;;;;5051524;28;20045;-67
2022/08/08 06:50:26;;;;;;;9.52;4.60;;;16.10;99.90;;;;;;5050390;28;20539;-66
2022/08/08 06:52:52;;;;;;;7.60;4.38;;;16.20;99.90;;;;;;5047301;28;20454;-66
2022/08/08 06:55:24;;;;;;;11.45;4.82;;;16.30;99.90;;;;;;5051261;28;20104;-67
2022/08/08 06:57:50;;;;;;;8.57;5.22;;;16.50;99.90;;;;;;5049234;28;20044;-66
2022/08/08 07:00:16;;;;;;;10.43;4.55;;;16.60;99.90;;;;;;5042263;28;20041;-66
2022/08/08 07:02:53;;;;;;;8.15;4.47;;;16.70;99.90;;;;;;5050712;28;20507;-66
2022/08/08 07:05:24;;;;;;;10.90;4.40;;;16.70;99.90;;;;;;5051507;28;20045;-67
2022/08/08 07:08:02;;;;;;;10.15;4.30;;;16.70;99.90;;;;;;5045970;28;20449;-66
2022/08/08 07:10:34;;;;;;;8.35;3.97;;;16.80;99.90;;;;;;5041810;28;20038;-67
2022/08/08 07:13:06;;;;;;;8.07;3.88;;;16.90;99.90;;;;;;5043679;28;20049;-66
2022/08/08 07:15:44;;;;;;;8.73;3.63;;;17.00;99.90;;;;;;5048300;28;20532;-67
2022/08/08 07:18:11;;;;;;;6.00;3.70;;;17.10;99.90;;;;;;5051473;28;20720;-67
2022/08/08 07:20:38;;;;;;;7.90;3.30;;;17.10;99.90;;;;;;5050841;28;20159;-66
2022/08/08 07:23:34;;;;;;;6.60;3.15;;;17.30;99.90;;;;;;5050576;28;20067;-67
2022/08/08 07:26:02;;;;;;;10.68;3.70;;;17.40;99.90;;;;;;5028097;28;20045;-67
2022/08/08 07:28:28;;;;;;;6.30;3.40;;;17.50;99.90;;;;;;5046007;28;20029;-67
2022/08/08 07:30:57;;;;;;;7.07;2.90;;;17.50;99.90;;;;;;5050537;28;20607;-67
2022/08/08 07:33:23;;;;;;;7.47;3.28;;;17.60;99.90;;;;;;5054469;28;20037;-67
2022/08/08 07:35:49;;;;;;;8.43;3.35;;;17.60;99.90;;;;;;5046963;28;20033;-66
2022/08/08 07:38:19;;;;;;;14.40;3.88;;;17.70;99.90;;;;;;5048799;28;20114;-64
2022/08/08 07:40:46;;;;;;;9.68;3.80;;;17.80;99.90;;;;;;5048701;28;20040;-66
2022/08/08 07:43:12;;;;;;;6.93;3.40;;;17.80;99.90;;;;;;5048236;28;20040;-67
2022/08/08 07:45:40;;;;;;;10.43;3.88;;;17.80;99.90;;;;;;5049012;28;20049;-67
2022/08/08 07:48:05;;;;;;;8.50;3.40;;;17.90;99.90;;;;;;5030074;28;20040;-67
2022/08/08 07:50:33;;;;;;;7.75;3.63;;;17.90;99.90;;;;;;5037350;28;20114;-66
2022/08/08 07:53:04;;;;;;;5.78;3.40;;;18.00;99.90;;;;;;5048444;28;20037;-67
2022/08/08 07:55:30;;;;;;;9.75;3.40;;;18.10;99.90;;;;;;5049015;28;20033;-66
2022/08/08 07:58:17;;;;;;;8.38;3.30;;;18.20;99.90;;;;;;5046792;28;20038;-67
2022/08/08 08:00:50;;;;;;;8.65;3.00;;;18.40;99.90;;;;;;5051039;28;20044;-66
2022/08/08 08:03:31;;;;;;;6.78;3.25;;;18.40;99.90;;;;;;5038376;28;20037;-66
2022/08/08 08:05:58;;;;;;;5.85;3.05;;;18.50;99.90;;;;;;5037529;28;20044;-65
2022/08/08 08:08:38;;;;;;;7.00;3.35;;;18.40;99.90;;;;;;5047498;28;20029;-67
2022/08/08 08:11:10;;;;;;;8.45;3.00;;;18.60;99.90;;;;;;5046018;28;20041;-67
2022/08/08 08:13:47;;;;;;;7.60;3.28;;;18.70;99.90;;;;;;5041212;28;20041;-67
2022/08/08 08:16:19;;;;;;;8.15;3.25;;;18.80;99.90;;;;;;5031414;28;20087;-67
2022/08/08 08:19:04;;;;;;;;;;;19.00;99.90;;;;;;5066395;28;20037;-67
2022/08/08 08:21:36;;;;;;;5.68;2.72;;;19.00;99.90;;;;;;5034170;28;19967;-67
2022/08/08 08:24:03;;;;;;;8.25;3.30;;;19.10;99.90;;;;;;5049563;28;20412;-67
2022/08/08 08:26:28;;;;;;;5.47;2.80;;;19.10;99.90;;;;;;5050077;28;20029;-67
2022/08/08 08:28:54;;;;;;;8.00;3.00;;;19.20;99.90;;;;;;5050464;28;20113;-67
2022/08/08 08:31:19;;;;;;;8.18;2.70;;;19.30;99.90;;;;;;5044110;28;20041;-67
2022/08/08 08:33:45;;;;;;;5.88;2.67;;;19.30;99.90;;;;;;5042730;28;20075;-67
2022/08/08 08:36:11;;;;;;;4.40;2.80;;;19.40;99.90;;;;;;5027421;28;20038;-67
2022/08/08 08:38:39;;;;;;;5.07;2.80;;;19.40;99.90;;;;;;5049504;28;20376;-67
2022/08/08 08:41:05;;;;;;;4.97;2.72;;;19.50;99.90;;;;;;5049040;28;20159;-66
2022/08/08 08:43:33;;;;;;;6.43;3.03;;;19.40;99.90;;;;;;5050167;28;20045;-66
2022/08/08 08:46:00;;;;;;;5.00;2.90;;;19.50;99.90;;;;;;5050166;28;20045;-67
2022/08/08 08:48:26;;;;;;;5.38;2.83;;;19.60;99.90;;;;;;5056188;28;20037;-67
2022/08/08 08:50:53;;;;;;;5.72;2.58;;;19.60;99.90;;;;;;5038741;28;20099;-67
2022/08/08 08:53:20;;;;;;;4.82;2.80;;;19.60;99.90;;;;;;5054190;28;20041;-67
2022/08/08 08:55:48;;;;;;;7.32;2.60;;;19.80;99.90;;;;;;5052211;28;20077;-67
2022/08/08 08:58:30;;;;;;;6.45;2.90;;;19.90;99.90;;;;;;5057347;28;20466;-67
2022/08/08 09:01:00;;;;;;;5.70;2.60;;;19.80;99.90;;;;;;5053396;28;20047;-67
2022/08/08 09:03:26;;;;;;;9.88;3.22;;;19.90;99.90;;;;;;5053900;28;20041;-66
2022/08/08 09:05:53;;;;;;;4.68;2.65;;;20.10;99.90;;;;;;5057705;28;20515;-67
2022/08/08 09:08:26;;;;;;;4.85;2.55;;;20.20;99.90;;;;;;5059314;28;20541;-67
2022/08/08 09:10:52;;;;;;;5.68;2.80;;;20.30;99.90;;;;;;5053635;28;20040;-67
2022/08/08 09:13:19;;;;;;;4.93;2.67;;;20.50;99.90;;;;;;5054011;28;20118;-67
2022/08/08 09:15:45;;;;;;;4.93;2.50;;;20.70;99.90;;;;;;5048415;28;20106;-66
2022/08/08 09:18:12;;;;;;;5.43;2.70;;;20.70;99.90;;;;;;5053525;28;20134;-66
2022/08/08 09:20:38;;;;;;;7.53;2.70;;;21.00;99.90;;;;;;5053133;28;20511;-66
2022/08/08 09:23:04;;;;;;;6.15;2.65;;;21.20;99.90;;;;;;5034417;28;20037;-66
2022/08/08 09:25:32;;;;;;;4.93;2.50;;;21.30;99.90;;;;;;5046550;28;20037;-66
2022/08/08 09:27:58;;;;;;;3.58;2.72;;;21.40;99.90;;;;;;5051209;28;20043;-66
2022/08/08 09:30:26;;;;;;;5.82;2.38;;;21.70;99.90;;;;;;5058540;28;20045;-66
2022/08/08 09:32:55;;;;;;;5.63;2.50;;;21.60;99.90;;;;;;5050577;28;20044;-69
2022/08/08 09:35:27;;;;;;;5.90;2.30;;;21.60;99.90;;;;;;5055132;28;20041;-69
2022/08/08 09:37:59;;;;;;;7.07;2.50;;;21.60;99.90;;;;;;5051997;28;20088;-67
2022/08/08 09:40:26;;;;;;;4.88;2.35;;;21.50;99.90;;;;;;5024816;28;20037;-69
2022/08/08 09:43:19;;;;;;;8.48;2.50;;;21.40;99.90;;;;;;5033053;28;20053;-69
2022/08/08 09:46:02;;;;;;;6.70;2.50;;;21.20;99.90;;;;;;5042646;28;20040;-69
2022/08/08 09:48:34;;;;;;;6.88;2.60;;;21.10;99.90;;;;;;5049243;28;20044;-69
2022/08/08 09:51:01;;;;;;;5.70;2.38;;;21.10;99.90;;;;;;5052795;28;20029;-69
2022/08/08 09:54:00;;;;;;;6.15;2.38;;;21.10;99.90;;;;;;5052346;28;20052;-67
2022/08/08 09:56:32;;;;;;;5.68;2.22;;;21.10;99.90;;;;;;5033729;28;20041;-69
2022/08/08 09:59:02;;;;;;;5.57;2.40;;;21.20;99.90;;;;;;5050516;28;20036;-69
2022/08/08 10:01:31;;;;;;;5.25;2.40;;;21.20;99.90;;;;;;5033328;28;20049;-69
2022/08/08 10:03:57;;;;;;;7.10;2.33;;;21.50;99.90;;;;;;5045194;28;20047;-70
2022/08/08 10:06:23;;;;;;;5.38;2.45;;;21.70;99.90;;;;;;5053160;28;20514;-70
2022/08/08 10:08:50;;;;;;;6.75;2.70;;;21.90;99.90;;;;;;5053283;28;20115;-69
2022/08/08 10:11:18;;;;;;;7.10;2.50;;;22.10;99.90;;;;;;5046190;28;20037;-70
2022/08/08 10:13:58;;;;;;;4.57;2.75;;;22.30;99.90;;;;;;5034489;28;20442;-70
2022/08/08 10:16:36;;;;;;;5.13;2.37;;;22.00;99.90;;;;;;5035150;28;20041;-69
2022/08/08 10:19:03;;;;;;;6.15;2.47;;;21.80;99.90;;;;;;5027195;28;20116;-70
2022/08/08 10:21:33;;;;;;;6.40;2.30;;;21.60;99.90;;;;;;5033654;28;20041;-69
2022/08/08 10:24:11;;;;;;;5.95;2.42;;;21.40;99.90;;;;;;5050636;28;20037;-68
2022/08/08 10:27:05;;;;;;;5.90;2.42;;;21.30;99.90;;;;;;5053656;28;20040;-69
2022/08/08 10:29:46;;;;;;;5.90;2.38;;;21.50;99.90;;;;;;5052720;28;20142;-68
2022/08/08 10:32:36;;;;;;;4.67;2.20;;;21.70;99.90;;;;;;5056644;28;20032;-68
2022/08/08 10:35:13;;;;;;;4.65;2.90;;;22.10;99.90;;;;;;5051853;28;20081;-68
2022/08/08 10:37:58;;;;;;;4.68;2.47;;;22.40;99.90;;;;;;5060792;28;20086;-67
2022/08/08 10:40:26;;;;;;;5.97;2.20;;;22.40;99.70;;;;;;5058008;28;20033;-67
2022/08/08 10:42:58;;;;;;;5.82;2.53;;;22.60;99.90;;;;;;5053317;28;20041;-66
2022/08/08 10:45:24;;;;;;;4.32;2.30;;;22.80;99.30;;;;;;5053200;28;20081;-67
2022/08/08 10:47:56;;;;;;;4.60;2.40;;;22.90;99.90;;;;;;5050259;28;20028;-67
2022/08/08 10:50:34;;;;;;;7.35;2.20;;;22.90;98.80;;;;;;5044966;28;20525;-67
2022/08/08 10:53:04;;;;;;;4.75;2.15;;;23.00;99.30;;;;;;5061087;28;20043;-67
2022/08/08 10:55:31;;;;;;;3.50;2.10;;;23.20;99.30;;;;;;5055064;28;20029;-66
2022/08/08 10:58:02;;;;;;;6.13;2.33;;;23.50;98.70;;;;;;5051441;28;20049;-66
2022/08/08 11:00:28;;;;;;;4.55;2.28;;;23.80;97.00;;;;;;5049666;28;20055;-67
2022/08/08 11:02:55;;;;;;;3.53;1.88;;;24.00;98.20;;;;;;5040083;28;20049;-67
2022/08/08 11:05:21;;;;;;;4.22;2.03;;;24.30;98.20;;;;;;5053807;28;20041;-67
2022/08/08 11:07:56;;;;;;;3.55;1.85;;;24.60;98.10;;;;;;5052014;28;20138;-67
2022/08/08 11:10:23;;;;;;;4.18;2.00;;;24.60;96.90;;;;;;5044046;28;20108;-67
2022/08/08 11:13:01;;;;;;;4.40;2.28;;;24.10;97.10;;;;;;5055602;28;20032;-67
2022/08/08 11:15:29;;;;;;;3.78;2.00;;;23.90;97.50;;;;;;5053554;28;20554;-68
2022/08/08 11:17:55;;;;;;;4.22;1.70;;;23.70;97.70;;;;;;5047240;28;20076;-67
2022/08/08 11:20:28;;;;;;;4.18;1.77;;;23.50;98.20;;;;;;5040030;28;20064;-66
2022/08/08 11:23:01;;;;;;;2.08;1.60;;;23.40;96.80;;;;;;5045806;28;20119;-67
2022/08/08 11:25:28;;;;;;;2.45;1.70;;;23.30;95.90;;;;;;5047601;28;20681;-67
2022/08/08 11:27:56;;;;;;;3.97;2.00;;;23.10;96.90;;;;;;5046691;28;20044;-68
2022/08/08 11:30:26;;;;;;;2.47;1.63;;;23.10;97.30;;;;;;5047719;28;20059;-66
2022/08/08 11:32:56;;;;;;;6.17;2.00;;;23.10;96.90;;;;;;5048046;28;20033;-67
2022/08/08 11:35:24;;;;;;;5.38;1.80;;;23.10;97.70;;;;;;5046928;28;20127;-66
2022/08/08 11:37:49;;;;;;;3.33;1.65;;;23.00;97.10;;;;;;5050194;28;20044;-66
2022/08/08 11:40:15;;;;;;;4.47;1.90;;;23.10;97.40;;;;;;5047600;28;20037;-65
2022/08/08 11:42:42;;;;;;;3.47;1.73;;;23.00;97.30;;;;;;5051457;28;20095;-66
2022/08/08 11:45:09;;;;;;;5.00;1.70;;;22.90;97.50;;;;;;5049390;28;20126;-67
2022/08/08 11:47:37;;;;;;;4.07;1.90;;;23.00;97.00;;;;;;5051349;28;20045;-68
2022/08/08 11:50:07;;;;;;;2.95;1.70;;;23.10;97.50;;;;;;5047716;28;20076;-67
2022/08/08 11:52:34;;;;;;;3.20;1.70;;;23.20;97.50;;;;;;5045699;28;20418;-68
2022/08/08 11:55:00;;;;;;;7.50;2.10;;;23.40;97.60;;;;;;5043218;28;20091;-67
2022/08/08 11:57:28;;;;;;;5.28;2.15;;;23.30;97.40;;;;;;5041453;28;20033;-67
2022/08/08 11:59:56;;;;;;;4.70;1.92;;;23.10;95.90;;;;;;5059312;28;20048;-67
2022/08/08 12:02:25;;;;;;;4.47;1.88;;;23.10;96.10;;;;;;5043947;28;20041;-67
2022/08/08 12:05:05;;;;;;;3.80;1.63;;;23.10;96.30;;;;;;5048810;28;20033;-67
2022/08/08 12:07:31;;;;;;;5.32;1.80;;;23.20;94.90;;;;;;5026153;28;20488;-67
2022/08/08 12:09:57;;;;;;;3.85;2.00;;;23.40;95.90;;;;;;5050820;28;20040;-67
2022/08/08 12:12:26;;;;;;;5.43;2.00;;;23.80;95.90;;;;;;5047484;28;20036;-67
2022/08/08 12:15:04;;;;;;;3.13;1.70;;;24.10;96.60;;;;;;5048573;28;20041;-67
2022/08/08 12:17:38;;;;;;;3.80;1.60;;;24.10;93.90;;;;;;5045042;28;20039;-68
2022/08/08 12:20:06;;;;;;;5.18;1.60;;;23.90;94.20;;;;;;5042581;28;20082;-68
2022/08/08 12:22:32;;;;;;;4.00;1.65;;;23.40;94.10;;;;;;5042985;28;20068;-68
2022/08/08 12:24:59;;;;;;;5.45;1.60;;;23.20;94.90;;;;;;5038129;28;20041;-67
2022/08/08 12:27:35;;;;;;;4.05;1.80;;;23.10;95.60;;;;;;5053139;28;20040;-68
2022/08/08 12:30:01;;;;;;;4.22;1.70;;;23.10;96.60;;;;;;5040508;28;20044;-67
2022/08/08 12:32:26;;;;;;;2.75;1.73;;;23.10;96.50;;;;;;5045148;28;20036;-65
2022/08/08 12:35:02;;;;;;;3.28;1.80;;;23.20;96.30;;;;;;5055992;28;20064;-68
2022/08/08 12:37:29;;;;;;;1.85;1.50;;;23.40;95.40;;;;;;5053854;28;20033;-67
2022/08/08 12:39:56;;;;;;;3.55;1.60;;;23.30;95.00;;;;;;5055055;28;20124;-70
2022/08/08 12:42:23;;;;;;;3.10;1.67;;;23.30;95.20;;;;;;5048199;28;20029;-70
2022/08/08 12:44:48;;;;;;;1.70;1.55;;;23.20;94.80;;;;;;5034807;28;20411;-70
2022/08/08 12:47:25;;;;;;;2.80;1.80;;;23.30;94.90;;;;;;5055329;28;20037;-67
2022/08/08 12:49:56;;;;;;;2.63;1.60;;;23.40;95.80;;;;;;5057514;28;20663;-68
2022/08/08 12:52:26;;;;;;;2.25;1.70;;;23.60;95.60;;;;;;5058620;28;20029;-68
2022/08/08 12:55:06;;;;;;;3.00;1.60;;;23.80;96.10;;;;;;5053671;28;20039;-68
2022/08/08 12:57:32;;;;;;;3.80;1.70;;;24.00;94.30;;;;;;5046048;28;20399;-67
2022/08/08 12:59:58;;;;;;;3.08;1.67;;;24.20;95.20;;;;;;5053457;28;20900;-68
2022/08/08 13:02:30;;;;;;;2.00;1.60;;;24.30;94.20;;;;;;5053563;28;20518;-68
2022/08/08 13:04:58;;;;;;;5.32;1.90;;;24.30;94.00;;;;;;5053801;28;20564;-69
2022/08/08 13:07:40;;;;;;;2.97;1.40;;;24.30;94.80;;;;;;5056296;28;20037;-69
2022/08/08 13:10:12;;;;;;;3.53;1.63;;;24.30;93.00;;;;;;5044822;28;20052;-67
2022/08/08 13:12:40;;;;;;;3.63;1.65;;;24.30;93.90;;;;;;5053546;28;20108;-67
2022/08/08 13:15:11;;;;;;;1.95;1.48;;;24.40;93.70;;;;;;5053194;28;20055;-67
2022/08/08 13:17:37;;;;;;;;;;;24.50;93.40;;;;;;5053344;28;20037;-68
2022/08/08 13:20:10;;;;;;;3.67;1.55;;;24.60;92.60;;;;;;5053027;28;19924;-68